createdAt,value
2023-03-03T00:00:37.162Z,1.80
2023-03-03T00:04:02.593Z,1.80
2023-03-03T00:07:26.250Z,1.80
2023-03-03T00:10:50.566Z,1.80
2023-03-03T00:14:30.084Z,1.90
2023-03-03T00:17:54.670Z,2.00
2023-03-03T00:21:30.198Z,2.00
2023-03-03T00:24:54.382Z,2.00
2023-03-03T00:28:24.027Z,1.90
2023-03-03T00:31:48.144Z,1.90
2023-03-03T00:35:26.873Z,1.90
2023-03-03T00:38:55.874Z,1.90
2023-03-03T00:42:20.869Z,2.00
2023-03-03T00:45:46.774Z,2.00
2023-03-03T00:49:26.865Z,2.00
2023-03-03T00:53:02.853Z,2.00
2023-03-03T00:56:28.362Z,2.10
2023-03-03T00:59:51.992Z,2.00
2023-03-03T01:03:18.601Z,1.90
2023-03-03T01:06:43.232Z,1.80
2023-03-03T01:10:09.436Z,1.70
2023-03-03T01:13:37.989Z,1.80
2023-03-03T01:17:02.248Z,1.80
2023-03-03T01:20:26.702Z,1.70
2023-03-03T01:23:50.411Z,1.70
2023-03-03T01:27:14.208Z,1.80
2023-03-03T01:30:39.935Z,1.80
2023-03-03T01:34:07.143Z,1.90
2023-03-03T01:37:31.228Z,1.80
2023-03-03T01:40:55.952Z,1.90
2023-03-03T01:44:20.217Z,1.90
2023-03-03T01:47:49.681Z,1.80
2023-03-03T01:51:21.692Z,1.70
2023-03-03T01:54:49.120Z,1.70
2023-03-03T01:58:16.848Z,1.60
2023-03-03T02:01:43.010Z,1.70
2023-03-03T02:05:10.875Z,1.70
2023-03-03T02:08:44.195Z,1.60
2023-03-03T02:12:12.221Z,1.50
2023-03-03T02:15:36.988Z,1.50
2023-03-03T02:19:03.674Z,1.60
2023-03-03T02:22:37.889Z,1.60
2023-03-03T02:26:10.474Z,1.50
2023-03-03T02:29:34.263Z,1.50
2023-03-03T02:32:58.242Z,1.60
2023-03-03T02:36:25.957Z,1.50
2023-03-03T02:39:51.247Z,1.40
2023-03-03T02:43:19.066Z,1.40
2023-03-03T02:46:45.646Z,1.40
2023-03-03T02:50:10.584Z,1.50
2023-03-03T02:53:34.301Z,1.40
2023-03-03T02:56:59.672Z,1.40
2023-03-03T03:00:25.639Z,1.40
2023-03-03T03:03:50.604Z,1.40
2023-03-03T03:07:17.523Z,1.40
2023-03-03T03:10:41.276Z,1.40
2023-03-03T03:14:06.829Z,1.40
2023-03-03T03:17:32.647Z,1.30
2023-03-03T03:20:59.546Z,1.30
2023-03-03T03:24:23.330Z,1.20
2023-03-03T03:27:54.903Z,1.20
2023-03-03T03:31:20.840Z,1.30
2023-03-03T03:34:46.006Z,1.30
2023-03-03T03:38:10.787Z,1.30
2023-03-03T03:41:35.468Z,1.30
2023-03-03T03:45:07.763Z,1.30
2023-03-03T03:48:32.831Z,1.20
2023-03-03T03:51:59.526Z,1.10
2023-03-03T03:55:27.705Z,1.20
2023-03-03T03:58:52.391Z,1.10
2023-03-03T04:02:16.559Z,1.00
2023-03-03T04:05:43.361Z,1.00
2023-03-03T04:09:09.782Z,1.00
2023-03-03T04:12:38.477Z,1.00
2023-03-03T04:16:06.231Z,1.00
2023-03-03T04:19:31.401Z,0.90
2023-03-03T04:22:57.072Z,0.90
2023-03-03T04:26:23.782Z,0.80
2023-03-03T04:29:48.560Z,0.80
2023-03-03T04:33:20.567Z,0.80
2023-03-03T04:36:45.422Z,0.80
2023-03-03T04:40:10.883Z,0.90
2023-03-03T04:43:36.810Z,0.90
2023-03-03T04:47:02.506Z,0.90
2023-03-03T04:50:28.542Z,1.00
2023-03-03T04:53:52.389Z,1.00
2023-03-03T04:57:16.540Z,1.10
2023-03-03T05:00:42.916Z,1.00
2023-03-03T05:04:07.157Z,1.10
2023-03-03T05:07:31.441Z,1.00
2023-03-03T05:10:55.956Z,1.00
2023-03-03T05:14:20.630Z,0.90
2023-03-03T05:17:45.786Z,0.90
2023-03-03T05:21:09.526Z,1.00
2023-03-03T05:24:33.477Z,1.00
2023-03-03T05:27:57.077Z,1.00
2023-03-03T05:31:21.524Z,1.10
2023-03-03T05:34:46.873Z,1.10
2023-03-03T05:38:12.114Z,1.00
2023-03-03T05:41:36.960Z,1.00
2023-03-03T05:45:01.512Z,1.00
2023-03-03T05:48:25.655Z,1.00
2023-03-03T05:51:50.882Z,1.10
2023-03-03T05:55:14.460Z,1.10
2023-03-03T05:58:40.873Z,1.10
2023-03-03T06:02:05.502Z,1.10
2023-03-03T06:05:29.566Z,1.00
2023-03-03T06:08:57.159Z,1.00
2023-03-03T06:12:22.227Z,0.90
2023-03-03T06:15:46.530Z,0.70
2023-03-03T06:19:10.508Z,0.70
2023-03-03T06:22:34.560Z,0.70
2023-03-03T06:25:59.878Z,0.70
2023-03-03T06:29:23.629Z,0.80
2023-03-03T06:32:47.838Z,0.70
2023-03-03T06:36:12.133Z,0.60
2023-03-03T06:39:36.670Z,0.60
2023-03-03T06:43:03.202Z,0.50
2023-03-03T06:46:26.909Z,0.50
2023-03-03T06:49:50.565Z,0.50
2023-03-03T06:53:16.513Z,0.50
2023-03-03T06:56:41.184Z,0.60
2023-03-03T07:00:20.256Z,0.60
2023-03-03T07:03:45.638Z,0.60
2023-03-03T07:07:18.202Z,0.80
2023-03-03T07:10:42.952Z,0.80
2023-03-03T07:14:15.058Z,0.90
2023-03-03T07:17:44.420Z,0.90
2023-03-03T07:21:17.398Z,0.80
2023-03-03T07:24:43.121Z,0.80
2023-03-03T07:28:17.859Z,0.90
2023-03-03T07:31:45.323Z,1.00
2023-03-03T07:35:42.056Z,1.00
2023-03-03T07:39:30.091Z,0.90
2023-03-03T07:42:54.617Z,0.80
2023-03-03T07:46:35.837Z,0.90
2023-03-03T07:50:04.562Z,0.80
2023-03-03T07:53:37.327Z,0.90
2023-03-03T07:57:12.948Z,1.00
2023-03-03T08:01:15.355Z,1.10
2023-03-03T08:04:43.531Z,1.20
2023-03-03T08:08:22.847Z,1.10
2023-03-03T08:11:54.154Z,0.90
2023-03-03T08:15:24.878Z,0.90
2023-03-03T08:18:50.601Z,0.90
2023-03-03T08:22:18.498Z,0.90
2023-03-03T08:25:43.545Z,1.00
2023-03-03T08:29:08.448Z,1.00
2023-03-03T08:32:34.843Z,1.00
2023-03-03T08:35:58.706Z,1.10
2023-03-03T08:39:22.488Z,1.20
2023-03-03T08:42:47.099Z,1.30
2023-03-03T08:46:13.118Z,1.40
2023-03-03T08:49:42.982Z,1.60
2023-03-03T08:53:06.773Z,1.70
2023-03-03T08:56:30.695Z,1.90
2023-03-03T08:59:54.424Z,1.90
2023-03-03T09:03:19.951Z,2.00
2023-03-03T09:06:43.537Z,2.00
2023-03-03T09:10:08.539Z,1.90
2023-03-03T09:13:32.205Z,2.00
2023-03-03T09:16:56.865Z,2.10
2023-03-03T09:20:37.271Z,2.40
2023-03-03T09:24:02.965Z,2.50
2023-03-03T09:27:30.438Z,2.70
2023-03-03T09:30:55.644Z,2.70
2023-03-03T09:34:24.553Z,2.60
2023-03-03T09:37:51.811Z,2.70
2023-03-03T09:41:41.554Z,2.90
2023-03-03T09:45:29.687Z,3.10
2023-03-03T09:49:03.596Z,3.40
2023-03-03T09:52:38.736Z,3.40
2023-03-03T09:56:14.592Z,3.50
2023-03-03T09:59:54.215Z,3.10
2023-03-03T10:03:50.205Z,2.90
2023-03-03T10:07:27.828Z,3.10
2023-03-03T10:11:01.375Z,3.00
2023-03-03T10:14:50.474Z,3.00
2023-03-03T10:18:26.106Z,2.90
2023-03-03T10:21:52.342Z,2.90
2023-03-03T10:25:29.561Z,2.90
2023-03-03T10:29:22.575Z,2.70
2023-03-03T10:32:53.857Z,2.70
2023-03-03T10:36:30.549Z,2.60
2023-03-03T10:40:11.782Z,2.90
2023-03-03T10:43:49.728Z,3.30
2023-03-03T10:47:35.609Z,3.60
2023-03-03T10:51:09.285Z,4.00
2023-03-03T10:54:48.085Z,4.30
2023-03-03T10:58:23.112Z,4.50
2023-03-03T11:01:54.205Z,4.60
2023-03-03T11:05:25.807Z,4.60
2023-03-03T11:08:56.543Z,4.40
2023-03-03T11:12:29.946Z,4.60
2023-03-03T11:16:06.982Z,4.90
2023-03-03T11:20:04.756Z,4.90
2023-03-03T11:23:46.522Z,5.10
2023-03-03T11:27:27.840Z,5.30
2023-03-03T11:31:04.451Z,5.30
2023-03-03T11:34:45.394Z,5.30
2023-03-03T11:38:37.842Z,5.10
2023-03-03T11:42:12.894Z,4.40
2023-03-03T11:45:42.971Z,4.60
2023-03-03T11:49:12.331Z,5.00
2023-03-03T11:52:42.385Z,5.20
2023-03-03T11:56:15.696Z,5.30
2023-03-03T12:00:16.797Z,5.40
2023-03-03T12:03:46.197Z,5.50
2023-03-03T12:07:24.647Z,5.20
2023-03-03T12:10:54.001Z,5.50
2023-03-03T12:14:37.381Z,5.60
2023-03-03T12:18:25.413Z,6.00
2023-03-03T12:22:06.184Z,6.20
2023-03-03T12:25:38.318Z,5.80
2023-03-03T12:29:11.017Z,5.60
2023-03-03T12:32:49.922Z,6.10
2023-03-03T12:36:23.457Z,6.10
2023-03-03T12:39:59.034Z,5.70
2023-03-03T12:43:36.174Z,5.50
2023-03-03T12:47:04.996Z,5.40
2023-03-03T12:50:37.388Z,5.00
2023-03-03T12:54:23.128Z,5.00
2023-03-03T12:57:57.117Z,5.10
2023-03-03T13:01:34.943Z,5.20
2023-03-03T13:05:06.012Z,5.00
2023-03-03T13:08:49.372Z,5.10
2023-03-03T13:12:31.472Z,5.30
2023-03-03T13:16:05.544Z,5.50
2023-03-03T13:19:35.652Z,5.70
2023-03-03T13:23:08.908Z,6.00
2023-03-03T13:26:37.498Z,6.10
2023-03-03T13:30:04.544Z,6.10
2023-03-03T13:33:31.941Z,6.10
2023-03-03T13:36:59.864Z,6.20
2023-03-03T13:40:26.945Z,6.40
2023-03-03T13:43:56.201Z,6.50
2023-03-03T13:47:25.371Z,6.40
2023-03-03T13:50:54.648Z,6.00
2023-03-03T13:54:33.784Z,5.80
2023-03-03T13:58:03.704Z,5.90
2023-03-03T14:01:37.412Z,5.40
2023-03-03T14:05:06.594Z,5.30
2023-03-03T14:08:53.016Z,5.40
2023-03-03T14:12:26.931Z,5.50
2023-03-03T14:15:57.457Z,5.40
2023-03-03T14:19:25.926Z,5.10
2023-03-03T14:22:54.816Z,5.20
2023-03-03T14:26:19.846Z,5.10
2023-03-03T14:29:43.462Z,4.90
2023-03-03T14:33:36.013Z,4.90
2023-03-03T14:37:09.385Z,5.00
2023-03-03T14:40:34.740Z,5.00
2023-03-03T14:44:01.635Z,4.90
2023-03-03T14:47:26.909Z,4.80
2023-03-03T14:50:52.734Z,4.80
2023-03-03T14:54:23.546Z,4.80
2023-03-03T14:57:47.444Z,4.90
2023-03-03T15:01:21.974Z,4.70
2023-03-03T15:04:49.590Z,4.70
2023-03-03T15:08:16.515Z,4.60
2023-03-03T15:11:40.396Z,4.70
2023-03-03T15:15:11.384Z,4.60
2023-03-03T15:19:14.630Z,4.60
2023-03-03T15:22:48.943Z,4.40
2023-03-03T15:26:20.006Z,4.40
2023-03-03T15:29:56.459Z,4.40
2023-03-03T15:33:30.563Z,4.50
2023-03-03T15:37:01.300Z,4.50
2023-03-03T15:40:28.520Z,4.60
2023-03-03T15:44:04.614Z,4.70
2023-03-03T15:47:56.249Z,4.80
2023-03-03T15:51:34.750Z,4.90
2023-03-03T15:55:17.949Z,5.00
2023-03-03T15:59:20.235Z,5.10
2023-03-03T16:02:53.423Z,5.20
2023-03-03T16:06:22.974Z,5.10
2023-03-03T16:09:57.297Z,5.00
2023-03-03T16:13:41.681Z,5.00
2023-03-03T16:17:19.472Z,5.00
2023-03-03T16:20:51.304Z,4.90
2023-03-03T16:24:26.234Z,4.80
2023-03-03T16:27:57.000Z,4.90
2023-03-03T16:31:25.888Z,4.90
2023-03-03T16:34:57.524Z,4.90
2023-03-03T16:38:28.984Z,4.80
2023-03-03T16:42:01.777Z,4.70
2023-03-03T16:45:28.893Z,4.60
2023-03-03T16:49:02.227Z,4.60
2023-03-03T16:52:30.503Z,4.60
2023-03-03T16:56:03.932Z,4.50
2023-03-03T16:59:56.757Z,4.50
2023-03-03T17:03:29.646Z,4.40
2023-03-03T17:06:58.831Z,4.30
2023-03-03T17:10:29.233Z,4.20
2023-03-03T17:14:15.252Z,4.10
2023-03-03T17:17:45.013Z,4.10
2023-03-03T17:21:19.358Z,4.00
2023-03-03T17:24:51.449Z,4.00
2023-03-03T17:28:28.015Z,4.00
2023-03-03T17:32:00.818Z,3.90
2023-03-03T17:35:57.267Z,3.80
2023-03-03T17:39:39.635Z,3.80
2023-03-03T17:43:09.440Z,3.70
2023-03-03T17:46:37.855Z,3.70
2023-03-03T17:50:15.228Z,3.60
2023-03-03T17:54:02.661Z,3.60
2023-03-03T17:57:39.838Z,3.60
2023-03-03T18:01:15.176Z,3.70
2023-03-03T18:05:05.391Z,3.70
2023-03-03T18:08:44.735Z,3.80
2023-03-03T18:12:22.518Z,3.90
2023-03-03T18:16:12.004Z,3.90
2023-03-03T18:20:04.950Z,3.90
2023-03-03T18:23:39.711Z,3.90
2023-03-03T18:27:31.550Z,3.90
2023-03-03T18:30:58.646Z,3.90
2023-03-03T18:34:35.474Z,3.90
2023-03-03T18:38:34.732Z,3.90
2023-03-03T18:42:13.658Z,3.90
2023-03-03T18:45:51.632Z,3.90
2023-03-03T18:49:16.419Z,3.90
2023-03-03T18:53:00.025Z,3.90
2023-03-03T18:56:44.637Z,3.90
2023-03-03T19:00:22.441Z,3.90
2023-03-03T19:04:10.465Z,3.90
2023-03-03T19:07:49.969Z,3.90
2023-03-03T19:11:39.149Z,3.90
2023-03-03T19:15:02.749Z,3.90
2023-03-03T19:18:28.021Z,4.00
2023-03-03T19:22:04.039Z,3.90
2023-03-03T19:25:31.745Z,4.00
2023-03-03T19:29:04.193Z,4.00
2023-03-03T19:32:38.689Z,4.00
2023-03-03T19:36:28.219Z,4.10
2023-03-03T19:40:00.788Z,4.00
2023-03-03T19:43:35.743Z,4.10
2023-03-03T19:47:07.211Z,4.10
2023-03-03T19:50:40.139Z,4.20
2023-03-03T19:54:18.423Z,4.20
2023-03-03T19:57:51.478Z,4.20
2023-03-03T20:01:22.774Z,4.20
2023-03-03T20:05:09.181Z,4.30
2023-03-03T20:08:39.595Z,4.30
2023-03-03T20:12:24.223Z,4.30
2023-03-03T20:15:53.828Z,4.40
2023-03-03T20:19:27.612Z,4.40
2023-03-03T20:23:03.717Z,4.40
2023-03-03T20:26:34.745Z,4.40
2023-03-03T20:30:11.175Z,4.50
2023-03-03T20:33:48.250Z,4.50
2023-03-03T20:37:18.649Z,4.50
2023-03-03T20:40:51.642Z,4.50
2023-03-03T20:44:24.605Z,4.50
2023-03-03T20:47:56.445Z,4.40
2023-03-03T20:51:28.494Z,4.40
2023-03-03T20:55:00.260Z,4.40
2023-03-03T20:58:33.906Z,4.40
2023-03-03T21:02:04.985Z,4.40
2023-03-03T21:05:29.132Z,4.40
2023-03-03T21:08:54.206Z,4.30
2023-03-03T21:12:28.775Z,4.40
2023-03-03T21:16:00.705Z,4.40
2023-03-03T21:19:27.904Z,4.40
2023-03-03T21:22:51.527Z,4.30
2023-03-03T21:26:15.046Z,4.30
2023-03-03T21:29:38.532Z,4.20
2023-03-03T21:33:03.726Z,4.20
2023-03-03T21:36:47.417Z,4.20
2023-03-03T21:40:16.108Z,4.20
2023-03-03T21:43:41.454Z,4.20
2023-03-03T21:47:06.104Z,4.20
2023-03-03T21:50:32.663Z,4.20
2023-03-03T21:53:56.198Z,4.30
2023-03-03T21:57:19.736Z,4.30
2023-03-03T22:00:43.916Z,4.40
2023-03-03T22:04:08.433Z,4.40
2023-03-03T22:07:33.332Z,4.40
2023-03-03T22:10:56.883Z,4.50
2023-03-03T22:14:20.419Z,4.50
2023-03-03T22:17:44.028Z,4.60
2023-03-03T22:21:07.509Z,4.60
2023-03-03T22:24:32.972Z,4.70
2023-03-03T22:27:56.482Z,4.70
2023-03-03T22:31:20.908Z,4.70
2023-03-03T22:34:44.663Z,4.80
2023-03-03T22:38:08.416Z,4.70
2023-03-03T22:41:33.293Z,4.80
2023-03-03T22:44:57.058Z,4.80
2023-03-03T22:48:20.783Z,4.80
2023-03-03T22:51:44.258Z,4.80
2023-03-03T22:55:08.899Z,4.80
2023-03-03T22:58:33.775Z,4.80
2023-03-03T23:01:57.274Z,4.80
2023-03-03T23:05:21.059Z,4.90
2023-03-03T23:08:44.653Z,4.90
2023-03-03T23:12:08.644Z,4.90
2023-03-03T23:15:33.690Z,4.90
2023-03-03T23:18:57.231Z,5.00
2023-03-03T23:22:20.959Z,5.00
2023-03-03T23:25:44.484Z,5.00
2023-03-03T23:29:08.153Z,5.00
2023-03-03T23:32:33.464Z,5.00
2023-03-03T23:35:57.209Z,5.00
2023-03-03T23:39:21.137Z,5.00
2023-03-03T23:42:45.380Z,5.00
2023-03-03T23:46:09.626Z,5.00
2023-03-03T23:49:35.483Z,5.00
2023-03-03T23:52:58.984Z,5.00
2023-03-03T23:56:22.545Z,5.00
2023-03-03T23:59:46.057Z,5.00
